sensor_id;sensor_type;location;lat;lon;timestamp;P1;durP1;ratioP1;P2;durP2;ratioP2
44214;SDS011;29884;47.450;19.124;2023-07-29T00:01:31;4.63;;;1.40;;
44214;SDS011;29884;47.450;19.124;2023-07-29T00:03:57;2.85;;;1.20;;
44214;SDS011;29884;47.450;19.124;2023-07-29T00:06:23;3.35;;;1.33;;
44214;SDS011;29884;47.450;19.124;2023-07-29T00:08:49;3.13;;;1.20;;
44214;SDS011;29884;47.450;19.124;2023-07-29T00:11:14;3.75;;;1.20;;
44214;SDS011;29884;47.450;19.124;2023-07-29T00:13:40;3.60;;;1.20;;
44214;SDS011;29884;47.450;19.124;2023-07-29T00:16:06;3.40;;;1.23;;
44214;SDS011;29884;47.450;19.124;2023-07-29T00:18:32;3.45;;;1.23;;
44214;SDS011;29884;47.450;19.124;2023-07-29T00:20:57;3.25;;;1.20;;
44214;SDS011;29884;47.450;19.124;2023-07-29T00:23:23;3.55;;;1.25;;
44214;SDS011;29884;47.450;19.124;2023-07-29T00:25:49;3.67;;;1.10;;
44214;SDS011;29884;47.450;19.124;2023-07-29T00:28:15;1.98;;;1.02;;
44214;SDS011;29884;47.450;19.124;2023-07-29T00:30:40;3.42;;;1.40;;
44214;SDS011;29884;47.450;19.124;2023-07-29T00:33:06;2.45;;;1.25;;
44214;SDS011;29884;47.450;19.124;2023-07-29T00:35:32;1.90;;;1.30;;
44214;SDS011;29884;47.450;19.124;2023-07-29T00:37:59;2.10;;;1.13;;
44214;SDS011;29884;47.450;19.124;2023-07-29T00:40:25;5.55;;;1.48;;
44214;SDS011;29884;47.450;19.124;2023-07-29T00:42:53;2.50;;;1.23;;
44214;SDS011;29884;47.450;19.124;2023-07-29T00:45:19;2.95;;;1.45;;
44214;SDS011;29884;47.450;19.124;2023-07-29T00:47:45;3.10;;;1.15;;
44214;SDS011;29884;47.450;19.124;2023-07-29T00:50:11;3.65;;;1.30;;
44214;SDS011;29884;47.450;19.124;2023-07-29T00:52:39;2.42;;;1.30;;
44214;SDS011;29884;47.450;19.124;2023-07-29T00:55:06;4.72;;;1.52;;
44214;SDS011;29884;47.450;19.124;2023-07-29T00:57:32;5.53;;;1.50;;
44214;SDS011;29884;47.450;19.124;2023-07-29T00:59:58;2.03;;;1.10;;
44214;SDS011;29884;47.450;19.124;2023-07-29T01:02:25;2.28;;;1.33;;
44214;SDS011;29884;47.450;19.124;2023-07-29T01:04:52;2.85;;;1.20;;
44214;SDS011;29884;47.450;19.124;2023-07-29T01:10:13;4.03;;;1.13;;
44214;SDS011;29884;47.450;19.124;2023-07-29T01:12:54;2.05;;;1.15;;
44214;SDS011;29884;47.450;19.124;2023-07-29T01:15:45;3.03;;;1.23;;
44214;SDS011;29884;47.450;19.124;2023-07-29T01:18:39;3.67;;;1.40;;
44214;SDS011;29884;47.450;19.124;2023-07-29T01:21:07;2.40;;;1.30;;
44214;SDS011;29884;47.450;19.124;2023-07-29T01:23:33;3.90;;;1.35;;
44214;SDS011;29884;47.450;19.124;2023-07-29T01:26:01;3.00;;;1.40;;
44214;SDS011;29884;47.450;19.124;2023-07-29T01:28:27;2.63;;;1.50;;
44214;SDS011;29884;47.450;19.124;2023-07-29T01:31:07;3.00;;;1.30;;
44214;SDS011;29884;47.450;19.124;2023-07-29T01:33:48;4.30;;;1.50;;
44214;SDS011;29884;47.450;19.124;2023-07-29T01:36:22;2.70;;;1.10;;
44214;SDS011;29884;47.450;19.124;2023-07-29T01:38:51;2.33;;;1.30;;
44214;SDS011;29884;47.450;19.124;2023-07-29T01:41:18;3.22;;;1.40;;
44214;SDS011;29884;47.450;19.124;2023-07-29T01:43:45;2.95;;;1.38;;
44214;SDS011;29884;47.450;19.124;2023-07-29T01:46:12;1.98;;;1.10;;
44214;SDS011;29884;47.450;19.124;2023-07-29T01:48:39;2.13;;;1.50;;
44214;SDS011;29884;47.450;19.124;2023-07-29T01:51:05;3.67;;;1.20;;
44214;SDS011;29884;47.450;19.124;2023-07-29T01:53:31;4.22;;;1.48;;
44214;SDS011;29884;47.450;19.124;2023-07-29T01:55:57;4.25;;;1.27;;
44214;SDS011;29884;47.450;19.124;2023-07-29T01:58:23;3.15;;;1.20;;
44214;SDS011;29884;47.450;19.124;2023-07-29T02:00:49;4.60;;;1.30;;
44214;SDS011;29884;47.450;19.124;2023-07-29T02:03:14;2.42;;;1.50;;
44214;SDS011;29884;47.450;19.124;2023-07-29T02:05:40;3.53;;;1.48;;
44214;SDS011;29884;47.450;19.124;2023-07-29T02:08:08;4.80;;;1.60;;
44214;SDS011;29884;47.450;19.124;2023-07-29T02:10:35;2.67;;;1.33;;
44214;SDS011;29884;47.450;19.124;2023-07-29T02:13:01;3.28;;;1.60;;
44214;SDS011;29884;47.450;19.124;2023-07-29T02:15:26;6.03;;;1.60;;
44214;SDS011;29884;47.450;19.124;2023-07-29T02:17:53;6.97;;;1.48;;
44214;SDS011;29884;47.450;19.124;2023-07-29T02:20:19;3.67;;;1.40;;
44214;SDS011;29884;47.450;19.124;2023-07-29T02:22:45;3.28;;;1.52;;
44214;SDS011;29884;47.450;19.124;2023-07-29T02:25:10;3.55;;;1.45;;
44214;SDS011;29884;47.450;19.124;2023-07-29T02:27:36;4.15;;;1.48;;
44214;SDS011;29884;47.450;19.124;2023-07-29T02:30:02;4.03;;;1.48;;
44214;SDS011;29884;47.450;19.124;2023-07-29T02:32:29;4.85;;;1.70;;
44214;SDS011;29884;47.450;19.124;2023-07-29T02:34:55;4.25;;;1.20;;
44214;SDS011;29884;47.450;19.124;2023-07-29T02:37:21;2.53;;;1.50;;
44214;SDS011;29884;47.450;19.124;2023-07-29T02:39:46;2.67;;;1.50;;
44214;SDS011;29884;47.450;19.124;2023-07-29T02:42:12;5.25;;;1.58;;
44214;SDS011;29884;47.450;19.124;2023-07-29T02:44:38;4.03;;;1.45;;
44214;SDS011;29884;47.450;19.124;2023-07-29T02:47:05;5.53;;;1.50;;
44214;SDS011;29884;47.450;19.124;2023-07-29T02:49:30;5.28;;;1.50;;
44214;SDS011;29884;47.450;19.124;2023-07-29T02:51:56;5.28;;;1.40;;
44214;SDS011;29884;47.450;19.124;2023-07-29T02:54:22;3.17;;;1.30;;
44214;SDS011;29884;47.450;19.124;2023-07-29T02:56:47;3.60;;;1.25;;
44214;SDS011;29884;47.450;19.124;2023-07-29T02:59:15;3.10;;;1.20;;
44214;SDS011;29884;47.450;19.124;2023-07-29T03:01:40;3.47;;;1.58;;
44214;SDS011;29884;47.450;19.124;2023-07-29T03:04:06;2.75;;;1.40;;
44214;SDS011;29884;47.450;19.124;2023-07-29T03:06:32;2.40;;;1.40;;
44214;SDS011;29884;47.450;19.124;2023-07-29T03:08:58;1.83;;;1.33;;
44214;SDS011;29884;47.450;19.124;2023-07-29T03:11:23;3.95;;;1.30;;
44214;SDS011;29884;47.450;19.124;2023-07-29T03:13:49;3.10;;;1.40;;
44214;SDS011;29884;47.450;19.124;2023-07-29T03:16:15;3.00;;;1.40;;
44214;SDS011;29884;47.450;19.124;2023-07-29T03:18:42;3.22;;;1.30;;
44214;SDS011;29884;47.450;19.124;2023-07-29T03:21:09;2.00;;;1.30;;
44214;SDS011;29884;47.450;19.124;2023-07-29T03:23:35;3.83;;;1.50;;
44214;SDS011;29884;47.450;19.124;2023-07-29T03:26:01;3.88;;;1.50;;
44214;SDS011;29884;47.450;19.124;2023-07-29T03:28:34;4.15;;;1.70;;
44214;SDS011;29884;47.450;19.124;2023-07-29T03:31:01;3.75;;;1.63;;
44214;SDS011;29884;47.450;19.124;2023-07-29T03:33:28;3.22;;;1.33;;
44214;SDS011;29884;47.450;19.124;2023-07-29T03:35:53;4.57;;;1.52;;
44214;SDS011;29884;47.450;19.124;2023-07-29T03:38:19;5.55;;;1.67;;
44214;SDS011;29884;47.450;19.124;2023-07-29T03:40:45;3.65;;;1.63;;
44214;SDS011;29884;47.450;19.124;2023-07-29T03:43:11;6.07;;;1.70;;
44214;SDS011;29884;47.450;19.124;2023-07-29T03:45:36;8.77;;;2.10;;
44214;SDS011;29884;47.450;19.124;2023-07-29T03:48:03;21.63;;;4.07;;
44214;SDS011;29884;47.450;19.124;2023-07-29T03:50:29;13.95;;;2.80;;
44214;SDS011;29884;47.450;19.124;2023-07-29T03:52:55;11.38;;;2.42;;
44214;SDS011;29884;47.450;19.124;2023-07-29T03:55:22;4.47;;;1.90;;
44214;SDS011;29884;47.450;19.124;2023-07-29T03:57:48;7.75;;;2.30;;
44214;SDS011;29884;47.450;19.124;2023-07-29T04:00:14;3.33;;;1.70;;
44214;SDS011;29884;47.450;19.124;2023-07-29T04:02:40;5.07;;;1.60;;
44214;SDS011;29884;47.450;19.124;2023-07-29T04:05:07;2.45;;;1.50;;
44214;SDS011;29884;47.450;19.124;2023-07-29T04:07:33;3.58;;;1.63;;
44214;SDS011;29884;47.450;19.124;2023-07-29T04:10:00;2.80;;;1.50;;
44214;SDS011;29884;47.450;19.124;2023-07-29T04:12:26;4.30;;;1.60;;
44214;SDS011;29884;47.450;19.124;2023-07-29T04:14:52;2.58;;;1.63;;
44214;SDS011;29884;47.450;19.124;2023-07-29T04:17:17;3.50;;;1.60;;
44214;SDS011;29884;47.450;19.124;2023-07-29T04:19:43;3.40;;;1.52;;
44214;SDS011;29884;47.450;19.124;2023-07-29T04:22:09;4.78;;;1.90;;
44214;SDS011;29884;47.450;19.124;2023-07-29T04:24:34;2.80;;;1.60;;
44214;SDS011;29884;47.450;19.124;2023-07-29T04:27:00;3.08;;;1.50;;
44214;SDS011;29884;47.450;19.124;2023-07-29T04:29:26;2.95;;;1.60;;
44214;SDS011;29884;47.450;19.124;2023-07-29T04:31:52;4.65;;;1.70;;
44214;SDS011;29884;47.450;19.124;2023-07-29T04:34:18;3.22;;;1.70;;
44214;SDS011;29884;47.450;19.124;2023-07-29T04:36:47;5.13;;;1.90;;
44214;SDS011;29884;47.450;19.124;2023-07-29T04:39:13;3.50;;;1.80;;
44214;SDS011;29884;47.450;19.124;2023-07-29T04:41:39;4.57;;;2.72;;
44214;SDS011;29884;47.450;19.124;2023-07-29T04:44:06;3.63;;;1.92;;
44214;SDS011;29884;47.450;19.124;2023-07-29T04:46:32;2.60;;;1.80;;
44214;SDS011;29884;47.450;19.124;2023-07-29T04:48:58;2.25;;;1.92;;
44214;SDS011;29884;47.450;19.124;2023-07-29T04:51:24;4.25;;;2.08;;
44214;SDS011;29884;47.450;19.124;2023-07-29T04:53:49;2.65;;;1.60;;
44214;SDS011;29884;47.450;19.124;2023-07-29T04:56:15;4.05;;;2.08;;
44214;SDS011;29884;47.450;19.124;2023-07-29T04:58:42;3.33;;;2.35;;
44214;SDS011;29884;47.450;19.124;2023-07-29T05:01:08;3.65;;;1.70;;
44214;SDS011;29884;47.450;19.124;2023-07-29T05:03:34;3.28;;;2.22;;
44214;SDS011;29884;47.450;19.124;2023-07-29T05:06:00;3.40;;;1.90;;
44214;SDS011;29884;47.450;19.124;2023-07-29T05:08:28;3.35;;;2.15;;
44214;SDS011;29884;47.450;19.124;2023-07-29T05:10:54;3.28;;;2.10;;
44214;SDS011;29884;47.450;19.124;2023-07-29T05:13:21;2.53;;;1.77;;
44214;SDS011;29884;47.450;19.124;2023-07-29T05:15:47;3.20;;;1.52;;
44214;SDS011;29884;47.450;19.124;2023-07-29T05:18:13;4.13;;;1.45;;
44214;SDS011;29884;47.450;19.124;2023-07-29T05:20:42;3.53;;;1.55;;
44214;SDS011;29884;47.450;19.124;2023-07-29T05:23:08;3.70;;;1.38;;
44214;SDS011;29884;47.450;19.124;2023-07-29T05:25:34;4.32;;;1.50;;
44214;SDS011;29884;47.450;19.124;2023-07-29T05:28:00;2.38;;;1.33;;
44214;SDS011;29884;47.450;19.124;2023-07-29T05:30:26;3.90;;;1.48;;
44214;SDS011;29884;47.450;19.124;2023-07-29T05:32:55;3.03;;;1.38;;
44214;SDS011;29884;47.450;19.124;2023-07-29T05:35:25;2.42;;;1.50;;
44214;SDS011;29884;47.450;19.124;2023-07-29T05:37:51;1.98;;;1.27;;
44214;SDS011;29884;47.450;19.124;2023-07-29T05:40:17;2.42;;;1.33;;
44214;SDS011;29884;47.450;19.124;2023-07-29T05:42:43;3.05;;;1.45;;
44214;SDS011;29884;47.450;19.124;2023-07-29T05:45:10;5.13;;;1.77;;
44214;SDS011;29884;47.450;19.124;2023-07-29T05:47:36;3.63;;;1.90;;
44214;SDS011;29884;47.450;19.124;2023-07-29T05:50:02;2.85;;;1.30;;
44214;SDS011;29884;47.450;19.124;2023-07-29T05:52:29;2.90;;;1.52;;
44214;SDS011;29884;47.450;19.124;2023-07-29T05:54:56;4.15;;;1.67;;
44214;SDS011;29884;47.450;19.124;2023-07-29T05:57:21;3.50;;;1.63;;
44214;SDS011;29884;47.450;19.124;2023-07-29T05:59:47;4.70;;;1.45;;
44214;SDS011;29884;47.450;19.124;2023-07-29T06:02:13;2.08;;;1.27;;
44214;SDS011;29884;47.450;19.124;2023-07-29T06:04:38;2.28;;;1.30;;
44214;SDS011;29884;47.450;19.124;2023-07-29T06:07:04;3.40;;;1.13;;
44214;SDS011;29884;47.450;19.124;2023-07-29T06:09:30;2.60;;;1.20;;
44214;SDS011;29884;47.450;19.124;2023-07-29T06:11:56;2.13;;;1.20;;
44214;SDS011;29884;47.450;19.124;2023-07-29T06:14:22;2.78;;;1.10;;
44214;SDS011;29884;47.450;19.124;2023-07-29T06:16:47;2.05;;;1.10;;
44214;SDS011;29884;47.450;19.124;2023-07-29T06:19:13;2.15;;;1.17;;
44214;SDS011;29884;47.450;19.124;2023-07-29T06:21:39;1.98;;;1.00;;
44214;SDS011;29884;47.450;19.124;2023-07-29T06:24:04;13.20;;;1.20;;
44214;SDS011;29884;47.450;19.124;2023-07-29T06:26:30;2.97;;;1.42;;
44214;SDS011;29884;47.450;19.124;2023-07-29T06:28:56;2.22;;;1.27;;
44214;SDS011;29884;47.450;19.124;2023-07-29T06:31:22;2.25;;;1.10;;
44214;SDS011;29884;47.450;19.124;2023-07-29T06:33:47;2.38;;;1.30;;
44214;SDS011;29884;47.450;19.124;2023-07-29T06:36:13;3.60;;;1.42;;
44214;SDS011;29884;47.450;19.124;2023-07-29T06:38:39;5.40;;;1.60;;
44214;SDS011;29884;47.450;19.124;2023-07-29T06:41:06;2.95;;;1.45;;
44214;SDS011;29884;47.450;19.124;2023-07-29T06:43:31;3.95;;;2.13;;
44214;SDS011;29884;47.450;19.124;2023-07-29T06:45:57;3.25;;;1.67;;
44214;SDS011;29884;47.450;19.124;2023-07-29T06:48:23;2.30;;;1.45;;
44214;SDS011;29884;47.450;19.124;2023-07-29T06:50:49;2.75;;;1.55;;
44214;SDS011;29884;47.450;19.124;2023-07-29T06:53:15;3.45;;;1.40;;
44214;SDS011;29884;47.450;19.124;2023-07-29T06:55:41;2.50;;;1.75;;
44214;SDS011;29884;47.450;19.124;2023-07-29T06:58:07;6.03;;;1.30;;
44214;SDS011;29884;47.450;19.124;2023-07-29T07:00:34;3.25;;;1.30;;
44214;SDS011;29884;47.450;19.124;2023-07-29T07:02:59;7.10;;;1.85;;
44214;SDS011;29884;47.450;19.124;2023-07-29T07:05:25;1.88;;;1.10;;
44214;SDS011;29884;47.450;19.124;2023-07-29T07:07:51;2.03;;;1.10;;
44214;SDS011;29884;47.450;19.124;2023-07-29T07:10:16;5.53;;;1.10;;
44214;SDS011;29884;47.450;19.124;2023-07-29T07:12:43;3.17;;;1.00;;
44214;SDS011;29884;47.450;19.124;2023-07-29T07:15:08;3.15;;;1.00;;
44214;SDS011;29884;47.450;19.124;2023-07-29T07:17:34;1.40;;;0.90;;
44214;SDS011;29884;47.450;19.124;2023-07-29T07:20:00;1.67;;;1.00;;
44214;SDS011;29884;47.450;19.124;2023-07-29T07:22:25;1.98;;;1.10;;
44214;SDS011;29884;47.450;19.124;2023-07-29T07:24:51;2.15;;;0.80;;
44214;SDS011;29884;47.450;19.124;2023-07-29T07:27:16;3.75;;;0.80;;
44214;SDS011;29884;47.450;19.124;2023-07-29T07:29:42;2.25;;;1.00;;
44214;SDS011;29884;47.450;19.124;2023-07-29T07:32:08;2.80;;;0.98;;
44214;SDS011;29884;47.450;19.124;2023-07-29T07:34:34;4.43;;;0.80;;
44214;SDS011;29884;47.450;19.124;2023-07-29T07:36:59;1.08;;;0.80;;
44214;SDS011;29884;47.450;19.124;2023-07-29T07:39:25;2.30;;;0.80;;
44214;SDS011;29884;47.450;19.124;2023-07-29T07:41:51;1.17;;;0.88;;
44214;SDS011;29884;47.450;19.124;2023-07-29T07:44:17;2.40;;;0.85;;
44214;SDS011;29884;47.450;19.124;2023-07-29T07:46:44;1.45;;;0.70;;
44214;SDS011;29884;47.450;19.124;2023-07-29T07:49:10;1.55;;;0.70;;
44214;SDS011;29884;47.450;19.124;2023-07-29T07:51:37;1.92;;;0.70;;
44214;SDS011;29884;47.450;19.124;2023-07-29T07:54:03;1.30;;;0.70;;
44214;SDS011;29884;47.450;19.124;2023-07-29T07:56:29;4.35;;;0.80;;
44214;SDS011;29884;47.450;19.124;2023-07-29T07:58:54;1.83;;;0.70;;
44214;SDS011;29884;47.450;19.124;2023-07-29T08:01:20;1.15;;;0.80;;
44214;SDS011;29884;47.450;19.124;2023-07-29T08:03:46;1.00;;;0.80;;
44214;SDS011;29884;47.450;19.124;2023-07-29T08:06:11;4.03;;;0.82;;
44214;SDS011;29884;47.450;19.124;2023-07-29T08:08:37;1.13;;;0.80;;
44214;SDS011;29884;47.450;19.124;2023-07-29T08:11:03;1.25;;;0.70;;
44214;SDS011;29884;47.450;19.124;2023-07-29T08:13:29;1.83;;;0.80;;
44214;SDS011;29884;47.450;19.124;2023-07-29T08:15:54;1.23;;;0.80;;
44214;SDS011;29884;47.450;19.124;2023-07-29T08:18:20;0.98;;;0.70;;
44214;SDS011;29884;47.450;19.124;2023-07-29T08:21:07;1.02;;;0.70;;
44214;SDS011;29884;47.450;19.124;2023-07-29T08:23:34;1.30;;;0.77;;
44214;SDS011;29884;47.450;19.124;2023-07-29T08:26:01;1.20;;;0.80;;
44214;SDS011;29884;47.450;19.124;2023-07-29T08:28:30;0.98;;;0.70;;
44214;SDS011;29884;47.450;19.124;2023-07-29T08:30:57;1.48;;;0.60;;
44214;SDS011;29884;47.450;19.124;2023-07-29T08:33:22;1.67;;;0.80;;
44214;SDS011;29884;47.450;19.124;2023-07-29T08:35:48;2.95;;;0.80;;
44214;SDS011;29884;47.450;19.124;2023-07-29T08:38:14;1.25;;;0.70;;
44214;SDS011;29884;47.450;19.124;2023-07-29T08:40:59;1.70;;;0.65;;
44214;SDS011;29884;47.450;19.124;2023-07-29T08:43:29;1.00;;;0.55;;
44214;SDS011;29884;47.450;19.124;2023-07-29T08:45:56;2.13;;;0.60;;
44214;SDS011;29884;47.450;19.124;2023-07-29T08:48:23;1.35;;;0.70;;
44214;SDS011;29884;47.450;19.124;2023-07-29T08:51:05;3.63;;;0.70;;
44214;SDS011;29884;47.450;19.124;2023-07-29T08:53:39;0.90;;;0.60;;
44214;SDS011;29884;47.450;19.124;2023-07-29T08:56:07;1.25;;;0.60;;
44214;SDS011;29884;47.450;19.124;2023-07-29T08:58:33;1.10;;;0.68;;
44214;SDS011;29884;47.450;19.124;2023-07-29T09:01:00;0.90;;;0.70;;
44214;SDS011;29884;47.450;19.124;2023-07-29T09:03:25;0.90;;;0.50;;
44214;SDS011;29884;47.450;19.124;2023-07-29T09:05:51;1.65;;;0.63;;
44214;SDS011;29884;47.450;19.124;2023-07-29T09:08:18;0.88;;;0.60;;
44214;SDS011;29884;47.450;19.124;2023-07-29T09:10:46;0.80;;;0.50;;
44214;SDS011;29884;47.450;19.124;2023-07-29T09:13:12;1.35;;;0.80;;
44214;SDS011;29884;47.450;19.124;2023-07-29T09:15:38;1.15;;;0.60;;
44214;SDS011;29884;47.450;19.124;2023-07-29T09:18:10;2.40;;;0.70;;
44214;SDS011;29884;47.450;19.124;2023-07-29T09:20:45;0.93;;;0.60;;
44214;SDS011;29884;47.450;19.124;2023-07-29T09:23:15;0.60;;;0.50;;
44214;SDS011;29884;47.450;19.124;2023-07-29T09:25:41;0.90;;;0.60;;
44214;SDS011;29884;47.450;19.124;2023-07-29T09:30:39;1.95;;;0.63;;
44214;SDS011;29884;47.450;19.124;2023-07-29T09:33:07;1.02;;;0.50;;
44214;SDS011;29884;47.450;19.124;2023-07-29T09:35:35;0.93;;;0.63;;
44214;SDS011;29884;47.450;19.124;2023-07-29T09:38:02;1.55;;;0.60;;
44214;SDS011;29884;47.450;19.124;2023-07-29T09:40:35;1.95;;;0.50;;
44214;SDS011;29884;47.450;19.124;2023-07-29T09:43:02;1.17;;;0.60;;
44214;SDS011;29884;47.450;19.124;2023-07-29T09:45:29;1.05;;;0.57;;
44214;SDS011;29884;47.450;19.124;2023-07-29T09:47:56;1.38;;;0.60;;
44214;SDS011;29884;47.450;19.124;2023-07-29T09:50:23;0.70;;;0.50;;
44214;SDS011;29884;47.450;19.124;2023-07-29T09:52:50;1.25;;;0.50;;
44214;SDS011;29884;47.450;19.124;2023-07-29T09:55:17;1.30;;;0.60;;
44214;SDS011;29884;47.450;19.124;2023-07-29T09:57:44;0.85;;;0.50;;
44214;SDS011;29884;47.450;19.124;2023-07-29T10:00:10;1.13;;;0.40;;
44214;SDS011;29884;47.450;19.124;2023-07-29T10:02:38;0.80;;;0.50;;
44214;SDS011;29884;47.450;19.124;2023-07-29T10:05:08;2.03;;;0.60;;
44214;SDS011;29884;47.450;19.124;2023-07-29T10:07:38;0.90;;;0.60;;
44214;SDS011;29884;47.450;19.124;2023-07-29T10:10:05;0.70;;;0.50;;
44214;SDS011;29884;47.450;19.124;2023-07-29T10:12:32;0.40;;;0.40;;
44214;SDS011;29884;47.450;19.124;2023-07-29T10:15:00;1.10;;;0.60;;
44214;SDS011;29884;47.450;19.124;2023-07-29T10:17:31;0.68;;;0.50;;
44214;SDS011;29884;47.450;19.124;2023-07-29T10:20:00;1.17;;;0.50;;
44214;SDS011;29884;47.450;19.124;2023-07-29T10:22:28;1.70;;;0.57;;
44214;SDS011;29884;47.450;19.124;2023-07-29T10:24:59;1.00;;;0.50;;
44214;SDS011;29884;47.450;19.124;2023-07-29T10:27:35;0.85;;;0.47;;
44214;SDS011;29884;47.450;19.124;2023-07-29T10:30:11;1.23;;;0.50;;
44214;SDS011;29884;47.450;19.124;2023-07-29T10:32:38;1.48;;;0.50;;
44214;SDS011;29884;47.450;19.124;2023-07-29T10:35:07;1.15;;;0.50;;
44214;SDS011;29884;47.450;19.124;2023-07-29T10:37:33;1.65;;;0.43;;
44214;SDS011;29884;47.450;19.124;2023-07-29T10:39:59;0.82;;;0.50;;
44214;SDS011;29884;47.450;19.124;2023-07-29T10:42:25;0.60;;;0.50;;
44214;SDS011;29884;47.450;19.124;2023-07-29T10:44:54;1.52;;;0.50;;
44214;SDS011;29884;47.450;19.124;2023-07-29T10:47:21;1.08;;;0.40;;
44214;SDS011;29884;47.450;19.124;2023-07-29T10:49:55;1.65;;;0.50;;
44214;SDS011;29884;47.450;19.124;2023-07-29T10:55:01;0.60;;;0.40;;
44214;SDS011;29884;47.450;19.124;2023-07-29T10:59:58;0.52;;;0.40;;
44214;SDS011;29884;47.450;19.124;2023-07-29T11:02:31;0.50;;;0.40;;
44214;SDS011;29884;47.450;19.124;2023-07-29T11:04:58;0.73;;;0.40;;
44214;SDS011;29884;47.450;19.124;2023-07-29T11:07:29;0.43;;;0.40;;
44214;SDS011;29884;47.450;19.124;2023-07-29T11:09:55;0.98;;;0.50;;
44214;SDS011;29884;47.450;19.124;2023-07-29T11:20:25;2.05;;;0.47;;
44214;SDS011;29884;47.450;19.124;2023-07-29T11:22:54;0.85;;;0.50;;
44214;SDS011;29884;47.450;19.124;2023-07-29T11:25:21;1.33;;;0.40;;
44214;SDS011;29884;47.450;19.124;2023-07-29T11:27:48;1.63;;;0.50;;
44214;SDS011;29884;47.450;19.124;2023-07-29T11:30:15;0.80;;;0.50;;
44214;SDS011;29884;47.450;19.124;2023-07-29T11:32:42;0.98;;;0.40;;
44214;SDS011;29884;47.450;19.124;2023-07-29T11:37:43;0.45;;;0.40;;
44214;SDS011;29884;47.450;19.124;2023-07-29T11:40:17;0.60;;;0.50;;
44214;SDS011;29884;47.450;19.124;2023-07-29T11:42:44;1.67;;;0.60;;
44214;SDS011;29884;47.450;19.124;2023-07-29T11:45:15;1.70;;;0.50;;
44214;SDS011;29884;47.450;19.124;2023-07-29T11:47:41;1.20;;;0.50;;
44214;SDS011;29884;47.450;19.124;2023-07-29T11:50:07;1.48;;;0.50;;
44214;SDS011;29884;47.450;19.124;2023-07-29T11:52:38;0.77;;;0.50;;
44214;SDS011;29884;47.450;19.124;2023-07-29T11:55:05;0.82;;;0.50;;
44214;SDS011;29884;47.450;19.124;2023-07-29T11:57:38;0.73;;;0.50;;
44214;SDS011;29884;47.450;19.124;2023-07-29T12:00:05;0.90;;;0.60;;
44214;SDS011;29884;47.450;19.124;2023-07-29T12:02:33;1.65;;;0.50;;
44214;SDS011;29884;47.450;19.124;2023-07-29T12:05:01;1.02;;;0.50;;
44214;SDS011;29884;47.450;19.124;2023-07-29T12:07:29;0.88;;;0.50;;
44214;SDS011;29884;47.450;19.124;2023-07-29T12:09:56;0.70;;;0.45;;
44214;SDS011;29884;47.450;19.124;2023-07-29T12:12:22;1.00;;;0.50;;
44214;SDS011;29884;47.450;19.124;2023-07-29T12:14:48;0.80;;;0.55;;
44214;SDS011;29884;47.450;19.124;2023-07-29T12:17:14;1.02;;;0.40;;
44214;SDS011;29884;47.450;19.124;2023-07-29T12:19:40;0.70;;;0.50;;
44214;SDS011;29884;47.450;19.124;2023-07-29T12:22:08;0.60;;;0.40;;
44214;SDS011;29884;47.450;19.124;2023-07-29T12:24:39;1.50;;;0.40;;
44214;SDS011;29884;47.450;19.124;2023-07-29T12:27:06;0.80;;;0.40;;
44214;SDS011;29884;47.450;19.124;2023-07-29T12:29:40;0.52;;;0.50;;
44214;SDS011;29884;47.450;19.124;2023-07-29T12:32:06;0.50;;;0.50;;
44214;SDS011;29884;47.450;19.124;2023-07-29T12:34:32;1.05;;;0.50;;
44214;SDS011;29884;47.450;19.124;2023-07-29T12:36:58;0.50;;;0.40;;
44214;SDS011;29884;47.450;19.124;2023-07-29T12:39:28;0.88;;;0.50;;
44214;SDS011;29884;47.450;19.124;2023-07-29T12:41:56;0.77;;;0.50;;
44214;SDS011;29884;47.450;19.124;2023-07-29T12:44:23;1.67;;;0.57;;
44214;SDS011;29884;47.450;19.124;2023-07-29T12:46:50;0.65;;;0.50;;
44214;SDS011;29884;47.450;19.124;2023-07-29T12:49:16;0.60;;;0.43;;
44214;SDS011;29884;47.450;19.124;2023-07-29T12:51:42;0.68;;;0.40;;
44214;SDS011;29884;47.450;19.124;2023-07-29T12:54:08;0.50;;;0.50;;
44214;SDS011;29884;47.450;19.124;2023-07-29T12:56:34;1.50;;;0.50;;
44214;SDS011;29884;47.450;19.124;2023-07-29T12:59:00;0.40;;;0.40;;
44214;SDS011;29884;47.450;19.124;2023-07-29T13:01:27;1.08;;;0.40;;
44214;SDS011;29884;47.450;19.124;2023-07-29T13:03:53;0.95;;;0.40;;
44214;SDS011;29884;47.450;19.124;2023-07-29T13:06:20;0.60;;;0.40;;
44214;SDS011;29884;47.450;19.124;2023-07-29T13:08:46;3.30;;;0.50;;
44214;SDS011;29884;47.450;19.124;2023-07-29T13:11:12;1.17;;;0.50;;
44214;SDS011;29884;47.450;19.124;2023-07-29T13:13:38;0.60;;;0.40;;
44214;SDS011;29884;47.450;19.124;2023-07-29T13:16:04;0.80;;;0.40;;
44214;SDS011;29884;47.450;19.124;2023-07-29T13:18:30;1.13;;;0.40;;
44214;SDS011;29884;47.450;19.124;2023-07-29T13:20:56;0.70;;;0.40;;
44214;SDS011;29884;47.450;19.124;2023-07-29T13:23:22;0.98;;;0.45;;
44214;SDS011;29884;47.450;19.124;2023-07-29T13:25:48;1.33;;;0.45;;
44214;SDS011;29884;47.450;19.124;2023-07-29T13:28:13;1.13;;;0.50;;
44214;SDS011;29884;47.450;19.124;2023-07-29T13:30:39;3.47;;;0.60;;
44214;SDS011;29884;47.450;19.124;2023-07-29T13:33:08;1.05;;;0.40;;
44214;SDS011;29884;47.450;19.124;2023-07-29T13:35:34;0.70;;;0.40;;
44214;SDS011;29884;47.450;19.124;2023-07-29T13:38:00;0.70;;;0.52;;
44214;SDS011;29884;47.450;19.124;2023-07-29T13:40:26;0.95;;;0.40;;
44214;SDS011;29884;47.450;19.124;2023-07-29T13:42:52;4.43;;;0.60;;
44214;SDS011;29884;47.450;19.124;2023-07-29T13:45:18;0.80;;;0.50;;
44214;SDS011;29884;47.450;19.124;2023-07-29T13:47:44;0.60;;;0.50;;
44214;SDS011;29884;47.450;19.124;2023-07-29T13:50:10;0.43;;;0.40;;
44214;SDS011;29884;47.450;19.124;2023-07-29T13:52:36;0.88;;;0.50;;
44214;SDS011;29884;47.450;19.124;2023-07-29T13:55:03;0.50;;;0.40;;
44214;SDS011;29884;47.450;19.124;2023-07-29T13:57:29;1.20;;;0.50;;
44214;SDS011;29884;47.450;19.124;2023-07-29T13:59:56;1.67;;;0.50;;
44214;SDS011;29884;47.450;19.124;2023-07-29T14:02:21;0.93;;;0.50;;
44214;SDS011;29884;47.450;19.124;2023-07-29T14:04:47;0.70;;;0.40;;
44214;SDS011;29884;47.450;19.124;2023-07-29T14:07:13;6.82;;;1.08;;
44214;SDS011;29884;47.450;19.124;2023-07-29T14:09:38;1.77;;;0.60;;
44214;SDS011;29884;47.450;19.124;2023-07-29T14:12:05;2.20;;;0.60;;
44214;SDS011;29884;47.450;19.124;2023-07-29T14:14:31;0.65;;;0.50;;
44214;SDS011;29884;47.450;19.124;2023-07-29T14:16:57;1.08;;;0.73;;
44214;SDS011;29884;47.450;19.124;2023-07-29T14:19:23;0.65;;;0.40;;
44214;SDS011;29884;47.450;19.124;2023-07-29T14:21:49;1.55;;;0.40;;
44214;SDS011;29884;47.450;19.124;2023-07-29T14:24:14;1.95;;;0.60;;
44214;SDS011;29884;47.450;19.124;2023-07-29T14:26:41;0.70;;;0.60;;
44214;SDS011;29884;47.450;19.124;2023-07-29T14:29:07;0.75;;;0.45;;
44214;SDS011;29884;47.450;19.124;2023-07-29T14:31:33;0.85;;;0.50;;
44214;SDS011;29884;47.450;19.124;2023-07-29T14:33:58;1.73;;;0.50;;
44214;SDS011;29884;47.450;19.124;2023-07-29T14:36:24;0.88;;;0.40;;
44214;SDS011;29884;47.450;19.124;2023-07-29T14:38:51;0.80;;;0.50;;
44214;SDS011;29884;47.450;19.124;2023-07-29T14:41:17;1.00;;;0.70;;
44214;SDS011;29884;47.450;19.124;2023-07-29T14:43:42;1.45;;;0.95;;
44214;SDS011;29884;47.450;19.124;2023-07-29T14:46:08;0.73;;;0.50;;
44214;SDS011;29884;47.450;19.124;2023-07-29T14:48:34;1.45;;;0.55;;
44214;SDS011;29884;47.450;19.124;2023-07-29T14:51:00;0.93;;;0.60;;
44214;SDS011;29884;47.450;19.124;2023-07-29T14:53:25;2.05;;;0.45;;